Time;durP1;ratioP1;P1;durP2;ratioP2;P2;SDS_P1;SDS_P2;PMS_P1;PMS_P2;Temp;Humidity;BMP_temperature;BMP_pressure;BME280_temperature;BME280_humidity;BME280_pressure;Samples;Min_cycle;Max_cycle;Signal;HPM_P1;HPM_P2
2022/06/28 00:08:20;;;;;;;11.90;10.57;;;13.40;99.90;;;;;;2614825;39;21033;-75
2022/06/28 00:20:19;;;;;;;12.67;11.57;;;13.30;99.90;;;;;;2614569;54;20383;-75
2022/06/28 00:26:07;;;;;;;12.20;10.47;;;13.30;99.90;;;;;;2614024;54;20399;-74
2022/06/28 00:31:55;;;;;;;23.80;10.53;;;13.40;99.90;;;;;;2614384;54;20395;-75
2022/06/28 00:37:44;;;;;;;14.80;10.50;;;13.40;99.90;;;;;;2613890;39;20534;-75
2022/06/28 00:43:34;;;;;;;17.00;10.77;;;13.30;99.90;;;;;;2615226;39;20784;-74
2022/06/28 00:49:21;;;;;;;13.20;9.83;;;13.10;99.90;;;;;;2613446;54;20375;-74
2022/06/28 00:55:09;;;;;;;12.13;10.53;;;13.20;99.90;;;;;;2613593;54;20225;-75
2022/06/28 01:00:57;;;;;;;13.20;11.90;;;13.10;99.90;;;;;;2614579;39;20534;-74
2022/06/28 01:20:41;;;;;;;15.00;11.27;;;12.90;99.90;;;;;;2611406;46;20422;-74
2022/06/28 01:26:30;;;;;;;15.20;12.67;;;12.80;99.90;;;;;;2611180;54;20406;-75
2022/06/28 01:32:18;;;;;;;16.80;12.17;;;12.80;99.90;;;;;;2612125;54;20417;-75
2022/06/28 01:38:06;;;;;;;17.10;11.37;;;12.70;99.90;;;;;;2611805;46;20435;-75
2022/06/28 01:43:53;;;;;;;17.40;13.10;;;12.80;99.90;;;;;;2612740;54;20370;-75
2022/06/28 01:49:40;;;;;;;14.83;12.60;;;12.80;99.90;;;;;;2613081;54;20242;-75
2022/06/28 01:55:29;;;;;;;14.73;12.70;;;12.80;99.90;;;;;;2614462;46;20167;-74
2022/06/28 02:01:17;;;;;;;22.17;14.40;;;12.90;99.90;;;;;;2614155;46;20402;-75
2022/06/28 02:17:23;;;;;;;14.57;13.03;;;12.70;99.90;;;;;;2612368;54;20430;-75
2022/06/28 02:23:11;;;;;;;15.00;13.50;;;12.90;99.90;;;;;;2612555;46;20401;-75
2022/06/28 02:29:03;;;;;;;16.33;13.10;;;12.80;99.90;;;;;;2614033;54;20808;-74
2022/06/28 02:40:56;;;;;;;17.20;13.30;;;12.80;99.90;;;;;;2613195;54;20450;-74
2022/06/28 02:46:43;;;;;;;15.20;12.43;;;12.80;99.90;;;;;;2612374;54;20152;-75
2022/06/28 02:52:31;;;;;;;14.50;11.93;;;12.90;99.90;;;;;;2614110;54;20446;-75
2022/06/28 02:58:19;;;;;;;13.33;12.00;;;12.90;99.90;;;;;;2614096;54;20790;-75
2022/06/28 03:14:30;;;;;;;15.27;12.93;;;12.70;99.90;;;;;;2612527;54;20523;-75
2022/06/28 03:20:17;;;;;;;14.53;12.17;;;12.70;99.90;;;;;;2612965;54;20130;-75
2022/06/28 03:26:04;;;;;;;21.70;12.30;;;12.60;99.90;;;;;;2612952;54;20155;-75
2022/06/28 03:31:51;;;;;;;13.70;12.50;;;12.70;99.90;;;;;;2612459;54;20134;-75
2022/06/28 03:37:38;;;;;;;20.60;14.10;;;12.70;99.90;;;;;;2612730;54;20238;-75
2022/06/28 03:43:26;;;;;;;16.70;14.20;;;12.70;99.90;;;;;;2612892;54;20137;-75
2022/06/28 03:49:13;;;;;;;14.90;12.60;;;12.90;99.90;;;;;;2614341;54;20153;-74
2022/06/28 03:55:01;;;;;;;15.30;13.67;;;12.80;99.90;;;;;;2613689;54;20122;-76
2022/06/28 04:00:49;;;;;;;17.00;15.10;;;13.00;99.90;;;;;;2613864;39;20545;-75
2022/06/28 04:06:54;;;;;;;19.20;14.60;;;13.00;99.90;;;;;;2612929;54;20177;-75
2022/06/28 04:12:42;;;;;;;16.33;14.63;;;13.00;99.90;;;;;;2611817;54;20184;-75
2022/06/28 04:18:28;;;;;;;19.97;16.47;;;13.20;99.90;;;;;;2612297;54;20154;-75
2022/06/28 04:24:16;;;;;;;18.43;14.10;;;13.30;99.90;;;;;;2613202;54;20172;-75
2022/06/28 04:30:04;;;;;;;18.37;15.90;;;13.50;99.90;;;;;;2612420;54;20153;-75
2022/06/28 04:35:51;;;;;;;19.20;16.87;;;13.60;99.90;;;;;;2613006;39;21983;-75
2022/06/28 04:41:39;;;;;;;22.63;16.40;;;13.70;99.90;;;;;;2613357;54;20391;-75
2022/06/28 04:47:26;;;;;;;21.50;17.37;;;14.10;99.90;;;;;;2613736;54;20146;-75
2022/06/28 04:53:14;;;;;;;21.40;17.23;;;14.60;99.90;;;;;;2612437;54;20138;-75
2022/06/28 04:59:02;;;;;;;20.97;12.70;;;15.30;99.90;;;;;;2612852;54;20130;-75
2022/06/28 05:09:00;;;;;;;20.40;11.30;;;15.90;99.90;;;;;;2612958;54;20571;-75
2022/06/28 05:14:47;;;;;;;14.20;11.50;;;15.90;99.90;;;;;;2613631;54;20390;-77
2022/06/28 05:20:34;;;;;;;19.47;12.63;;;16.40;99.90;;;;;;2611407;54;20146;-76
2022/06/28 05:26:24;;;;;;;12.90;10.83;;;16.80;99.90;;;;;;2610287;54;20130;-76
2022/06/28 05:32:11;;;;;;;12.13;9.17;;;17.00;99.90;;;;;;2612333;54;21041;-75
2022/06/28 05:37:58;;;;;;;8.97;8.00;;;17.10;99.90;;;;;;2612894;54;20150;-76
2022/06/28 05:43:45;;;;;;;8.60;7.80;;;17.90;99.90;;;;;;2611592;39;20592;-76
2022/06/28 05:49:32;;;;;;;11.17;8.00;;;18.30;99.90;;;;;;2613210;39;20519;-75
2022/06/28 05:55:20;;;;;;;7.37;6.77;;;18.30;99.90;;;;;;2613958;54;20151;-77
2022/06/28 06:01:08;;;;;;;7.70;6.90;;;18.90;99.90;;;;;;2611758;46;20170;-79
2022/06/28 06:06:56;;;;;;;7.30;6.60;;;19.30;99.90;;;;;;2613477;39;20579;-75
2022/06/28 06:12:44;;;;;;;7.43;6.50;;;20.20;99.90;;;;;;2613562;54;20132;-75
2022/06/28 06:18:32;;;;;;;9.80;5.90;;;20.40;99.90;;;;;;2613882;54;20160;-76
2022/06/28 06:24:20;;;;;;;6.63;6.00;;;20.90;92.90;;;;;;2614201;54;20131;-76
2022/06/28 06:30:08;;;;;;;5.77;5.20;;;20.80;82.00;;;;;;2614516;54;20516;-75
2022/06/28 06:35:55;;;;;;;8.63;5.57;;;21.30;60.10;;;;;;2614424;54;20399;-76
2022/06/28 06:41:44;;;;;;;7.77;5.50;;;21.70;48.70;;;;;;2614118;54;20139;-75
2022/06/28 06:47:31;;;;;;;7.00;5.60;;;21.40;48.00;;;;;;2614068;54;20985;-76
2022/06/28 06:53:19;;;;;;;8.70;5.60;;;21.40;51.30;;;;;;2614831;54;20134;-77
2022/06/28 06:59:07;;;;;;;7.00;6.30;;;22.70;28.90;;;;;;2614944;39;20511;-76
2022/06/28 07:04:55;;;;;;;6.40;4.80;;;22.00;33.70;;;;;;2615329;54;20387;-76
2022/06/28 07:10:42;;;;;;;7.13;6.43;;;22.70;24.30;;;;;;2612893;54;20209;-76
2022/06/28 07:16:30;;;;;;;6.40;5.80;;;22.80;23.20;;;;;;2615180;54;20665;-75
2022/06/28 07:22:18;;;;;;;6.63;5.90;;;22.80;24.20;;;;;;2615375;54;20125;-76
2022/06/28 07:28:08;;;;;;;6.80;5.87;;;23.10;16.00;;;;;;2613177;54;20198;-77
2022/06/28 07:33:56;;;;;;;8.17;5.67;;;23.40;13.40;;;;;;2612853;54;20403;-76
2022/06/28 07:39:44;;;;;;;6.83;5.67;;;23.70;11.40;;;;;;2613228;54;20398;-76
2022/06/28 07:45:36;;;;;;;5.90;5.40;;;24.40;8.40;;;;;;2614145;54;20122;-76
2022/06/28 07:57:30;;;;;;;7.20;5.40;;;23.80;6.10;;;;;;2613371;54;20395;-76
2022/06/28 08:03:17;;;;;;;6.70;5.00;;;23.60;5.40;;;;;;2614532;54;20169;-76
2022/06/28 08:19:21;;;;;;;4.57;4.17;;;24.40;5.60;;;;;;2612837;54;20384;-76
2022/06/28 08:25:08;;;;;;;5.70;4.87;;;25.40;1.00;;;;;;2610964;39;20597;-76
2022/06/28 08:30:55;;;;;;;5.17;4.70;;;24.70;1.00;;;;;;2612975;54;21019;-76
2022/06/28 08:36:43;;;;;;;7.93;4.47;;;24.20;1.00;;;;;;2612010;39;20499;-75
2022/06/28 08:42:34;;;;;;;6.17;4.33;;;24.60;1.00;;;;;;2613810;54;20151;-75
2022/06/28 08:48:27;;;;;;;4.90;3.90;;;25.10;1.00;;;;;;2613838;54;20404;-76
2022/06/28 08:54:17;;;;;;;4.40;4.00;;;25.20;1.00;;;;;;2615234;54;20383;-76
2022/06/28 09:00:06;;;;;;;4.87;4.00;;;25.40;1.00;;;;;;2613860;54;20468;-76
2022/06/28 09:05:54;;;;;;;3.93;3.63;;;25.40;1.00;;;;;;2613663;54;21094;-76
2022/06/28 09:15:10;;;;;;;4.67;4.27;;;24.40;1.00;;;;;;2614086;54;20403;-76
2022/06/28 09:20:57;;;;;;;4.70;4.30;;;26.40;1.00;;;;;;2614133;39;20236;-76
2022/06/28 09:26:44;;;;;;;4.60;4.20;;;26.00;1.00;;;;;;2613759;54;20459;-76
2022/06/28 09:32:34;;;;;;;4.83;4.10;;;26.20;1.00;;;;;;2613734;54;20258;-76
2022/06/28 09:38:35;;;;;;;4.80;4.27;;;26.00;1.00;;;;;;2614841;46;21003;-77
2022/06/28 09:44:27;;;;;;;3.80;3.60;;;26.60;1.00;;;;;;2614672;54;20395;-78
2022/06/28 09:50:20;;;;;;;4.30;4.00;;;25.70;1.00;;;;;;2616123;54;20403;-76
2022/06/28 09:56:08;;;;;;;4.67;4.37;;;26.70;1.00;;;;;;2615856;54;20383;-76
2022/06/28 10:01:56;;;;;;;5.50;5.10;;;27.20;1.00;;;;;;2616139;54;20126;-75
2022/06/28 10:04:24;;;;;;;4.37;4.07;;;27.30;1.00;;;;;;2614661;54;20471;-75
2022/06/28 10:06:50;;;;;;;7.80;4.20;;;27.00;1.00;;;;;;2614834;39;20826;-76
2022/06/28 10:09:53;;;;;;;4.97;4.53;;;26.60;1.00;;;;;;2614467;54;20441;-75
2022/06/28 10:18:26;;;;;;;10.43;5.20;;;27.30;1.00;;;;;;2614190;54;20508;-75
2022/06/28 10:24:14;;;;;;;5.40;4.90;;;27.00;1.00;;;;;;2614432;54;20504;-76
2022/06/28 10:50:22;;;;;;;4.77;4.40;;;27.40;1.00;;;;;;2614195;54;20384;-76
2022/06/28 10:56:12;;;;;;;4.73;4.30;;;27.80;1.00;;;;;;2613894;54;20296;-76
2022/06/28 11:05:26;;;;;;;6.00;4.63;;;26.90;1.00;;;;;;2613830;54;20956;-76
2022/06/28 11:21:19;;;;;;;4.90;4.53;;;28.90;1.00;;;;;;2614431;54;20443;-76
2022/06/28 11:33:15;;;;;;;6.43;5.10;;;28.40;1.00;;;;;;2614201;54;20393;-77
2022/06/28 11:39:23;;;;;;;6.57;5.17;;;28.60;1.00;;;;;;2613304;54;20530;-76
2022/06/28 11:45:12;;;;;;;4.53;4.17;;;28.60;1.00;;;;;;2614035;54;20502;-76
2022/06/28 11:51:00;;;;;;;5.60;5.20;;;30.00;1.00;;;;;;2614548;54;20915;-76
2022/06/28 11:56:49;;;;;;;4.80;4.50;;;28.50;1.00;;;;;;2616050;54;20934;-75
2022/06/28 12:02:42;;;;;;;5.40;5.00;;;29.00;1.00;;;;;;2616145;54;20973;-75
2022/06/28 12:08:55;;;;;;;7.87;5.23;;;29.40;1.00;;;;;;2615713;54;20397;-76
2022/06/28 12:21:00;;;;;;;6.50;4.47;;;29.90;1.00;;;;;;2615883;39;21011;-76
2022/06/28 12:26:48;;;;;;;5.50;5.10;;;28.10;1.00;;;;;;2615403;54;20156;-75
2022/06/28 12:32:36;;;;;;;5.83;5.37;;;26.90;1.00;;;;;;2615340;54;20167;-75
2022/06/28 12:38:24;;;;;;;5.20;4.80;;;25.70;1.00;;;;;;2613238;46;20167;-76
2022/06/28 12:44:11;;;;;;;4.50;4.30;;;26.30;1.00;;;;;;2614685;39;20490;-76
2022/06/28 12:50:02;;;;;;;8.13;4.90;;;27.20;1.00;;;;;;2613150;54;20161;-76
2022/06/28 12:55:50;;;;;;;5.33;5.00;;;28.30;1.00;;;;;;2613224;54;20385;-75
2022/06/28 13:01:38;;;;;;;4.77;4.33;;;28.00;1.00;;;;;;2612996;46;20417;-76
2022/06/28 13:07:25;;;;;;;5.77;5.40;;;28.60;1.00;;;;;;2611771;54;20137;-76
2022/06/28 13:23:47;;;;;;;6.70;4.80;;;26.10;1.00;;;;;;2613016;54;20383;-76
2022/06/28 13:33:13;;;;;;;4.50;4.20;;;25.40;1.00;;;;;;2613644;54;20411;-76
2022/06/28 13:39:01;;;;;;;5.27;4.70;;;25.40;1.00;;;;;;2612584;54;20442;-76
2022/06/28 13:44:49;;;;;;;4.30;4.00;;;27.00;1.00;;;;;;2613577;46;20570;-76
2022/06/28 13:50:37;;;;;;;4.97;4.57;;;27.00;1.00;;;;;;2613332;54;20502;-76
2022/06/28 13:56:24;;;;;;;4.30;4.10;;;25.60;1.00;;;;;;2613621;54;20234;-76
2022/06/28 14:02:11;;;;;;;4.60;4.20;;;25.70;1.00;;;;;;2611740;54;20152;-76
2022/06/28 14:07:59;;;;;;;4.40;4.10;;;26.90;1.00;;;;;;2613018;54;20242;-76
2022/06/28 14:13:46;;;;;;;4.63;4.23;;;27.40;1.00;;;;;;2613127;46;20143;-75
2022/06/28 14:19:34;;;;;;;4.73;4.43;;;28.60;1.00;;;;;;2613054;54;20280;-74
2022/06/28 14:25:22;;;;;;;5.10;4.80;;;28.70;1.00;;;;;;2614790;54;20126;-75
2022/06/28 14:31:10;;;;;;;4.40;4.10;;;28.40;1.00;;;;;;2613384;54;20413;-74
2022/06/28 14:36:58;;;;;;;4.53;4.27;;;28.20;1.00;;;;;;2614011;39;21617;-76
2022/06/28 14:42:45;;;;;;;4.60;4.23;;;28.80;1.00;;;;;;2616007;54;20234;-75
2022/06/28 14:48:33;;;;;;;4.30;4.10;;;29.20;1.00;;;;;;2615429;54;20153;-75
2022/06/28 14:54:21;;;;;;;4.87;4.57;;;28.30;1.00;;;;;;2616104;39;20639;-75
2022/06/28 15:00:10;;;;;;;7.50;4.50;;;27.70;1.00;;;;;;2615735;54;20492;-76
2022/06/28 15:05:57;;;;;;;4.60;4.30;;;28.50;1.00;;;;;;2615740;54;21084;-75
2022/06/28 15:11:45;;;;;;;5.60;4.50;;;27.90;1.00;;;;;;2615506;54;20191;-76
2022/06/28 15:17:33;;;;;;;7.50;4.93;;;28.60;1.00;;;;;;2615457;54;20149;-75
2022/06/28 15:32:50;;;;;;;4.90;4.60;;;29.40;1.00;;;;;;2614923;46;21163;-74
2022/06/28 15:35:16;;;;;;;4.70;4.40;;;29.40;1.00;;;;;;2614910;54;20415;-76
2022/06/28 15:41:04;;;;;;;4.43;4.23;;;29.60;1.00;;;;;;2615522;54;20408;-75
2022/06/28 15:46:51;;;;;;;4.17;3.87;;;28.70;1.00;;;;;;2615459;54;20631;-75
2022/06/28 15:52:39;;;;;;;9.03;8.53;;;29.10;1.00;;;;;;2615346;54;20132;-75
2022/06/28 15:58:27;;;;;;;18.67;17.50;;;28.40;1.00;;;;;;2615483;54;20677;-75
2022/06/28 16:04:15;;;;;;;9.07;8.37;;;27.10;1.00;;;;;;2615720;39;20178;-75
2022/06/28 16:10:03;;;;;;;5.20;4.80;;;26.40;1.00;;;;;;2615573;54;20151;-76
2022/06/28 16:15:51;;;;;;;4.90;4.50;;;26.10;1.00;;;;;;2615404;39;20772;-75
2022/06/28 16:21:39;;;;;;;5.13;4.73;;;26.70;1.00;;;;;;2615123;54;20133;-75
2022/06/28 16:27:27;;;;;;;5.13;4.73;;;27.50;1.00;;;;;;2615037;54;20264;-77
2022/06/28 16:33:15;;;;;;;4.33;4.10;;;27.20;1.00;;;;;;2613800;54;20138;-76
2022/06/28 16:39:02;;;;;;;4.00;3.80;;;26.80;1.00;;;;;;2614507;54;20142;-75
2022/06/28 16:44:52;;;;;;;4.47;4.10;;;27.30;1.00;;;;;;2614684;54;20638;-76
2022/06/28 16:50:39;;;;;;;4.30;4.00;;;27.30;1.00;;;;;;2614456;54;20399;-75
2022/06/28 16:56:27;;;;;;;4.27;3.90;;;28.10;1.00;;;;;;2615949;39;20537;-75
2022/06/28 17:02:15;;;;;;;4.47;4.27;;;27.90;1.00;;;;;;2613724;54;20415;-75
2022/06/28 17:08:02;;;;;;;4.97;4.53;;;28.10;1.00;;;;;;2613452;54;20602;-76
2022/06/28 17:17:19;;;;;;;7.23;6.73;;;28.30;1.00;;;;;;2612171;54;20533;-76
2022/06/28 17:23:07;;;;;;;4.53;4.27;;;28.30;1.00;;;;;;2612862;54;20559;-75
2022/06/28 17:28:54;;;;;;;6.67;4.83;;;28.00;1.00;;;;;;2613284;54;20127;-75
2022/06/28 17:34:42;;;;;;;5.40;4.90;;;27.70;1.00;;;;;;2613846;54;20406;-75
2022/06/28 17:40:30;;;;;;;5.30;4.80;;;27.80;1.00;;;;;;2613305;54;21369;-76
2022/06/28 17:46:18;;;;;;;4.73;4.43;;;27.00;1.00;;;;;;2613611;54;20409;-74
2022/06/28 17:52:06;;;;;;;4.40;4.10;;;26.60;1.00;;;;;;2615238;39;20777;-77
2022/06/28 17:57:55;;;;;;;5.40;5.00;;;25.70;1.00;;;;;;2615756;39;20736;-75
2022/06/28 18:03:42;;;;;;;8.70;4.70;;;25.50;1.00;;;;;;2615284;54;20425;-76
2022/06/28 18:09:32;;;;;;;4.50;4.20;;;25.30;1.00;;;;;;2615428;54;20119;-74
2022/06/28 18:15:22;;;;;;;5.47;4.93;;;25.10;1.00;;;;;;2615683;54;20936;-76
2022/06/28 18:21:10;;;;;;;5.63;5.00;;;25.00;1.00;;;;;;2614926;54;20399;-75
2022/06/28 18:26:57;;;;;;;4.10;3.90;;;25.00;1.00;;;;;;2614259;54;20131;-75
2022/06/28 18:32:45;;;;;;;7.60;4.30;;;25.00;1.00;;;;;;2614869;54;20131;-76
2022/06/28 18:38:33;;;;;;;4.33;4.03;;;24.90;1.00;;;;;;2615855;54;20130;-76
2022/06/28 18:44:22;;;;;;;4.83;4.33;;;24.50;1.00;;;;;;2614538;39;20775;-76
2022/06/28 18:50:11;;;;;;;4.67;4.27;;;24.30;1.00;;;;;;2615257;54;20224;-76
2022/06/28 18:55:59;;;;;;;4.30;4.00;;;24.10;1.00;;;;;;2615448;54;20436;-76
2022/06/28 19:01:47;;;;;;;4.53;4.10;;;23.90;1.00;;;;;;2615209;54;20655;-75
2022/06/28 19:07:35;;;;;;;4.00;3.60;;;23.60;1.00;;;;;;2615031;54;20175;-76
2022/06/28 19:13:36;;;;;;;5.07;4.30;;;23.40;1.00;;;;;;2613032;54;21031;-77
2022/06/28 19:19:24;;;;;;;4.53;4.17;;;23.30;1.00;;;;;;2613800;54;20278;-77
2022/06/28 19:25:12;;;;;;;5.17;4.00;;;23.20;1.00;;;;;;2613632;54;20135;-75
2022/06/28 19:30:59;;;;;;;4.57;4.20;;;23.00;1.00;;;;;;2613760;54;20555;-76
2022/06/28 19:36:46;;;;;;;6.73;3.70;;;23.00;1.00;;;;;;2613806;54;20129;-75
2022/06/28 19:42:34;;;;;;;4.23;3.83;;;22.80;1.00;;;;;;2613214;54;20926;-76
2022/06/28 19:48:22;;;;;;;7.17;4.20;;;22.60;1.00;;;;;;2612746;54;20391;-76
2022/06/28 19:54:11;;;;;;;6.83;6.13;;;22.50;1.00;;;;;;2613851;54;20244;-75
2022/06/28 19:59:59;;;;;;;5.37;4.80;;;22.20;1.00;;;;;;2614809;54;20370;-75
2022/06/28 20:05:47;;;;;;;4.97;4.50;;;22.00;1.00;;;;;;2614149;54;20403;-77
2022/06/28 20:21:47;;;;;;;6.70;4.30;;;21.60;1.00;;;;;;2612609;54;20399;-76
2022/06/28 20:27:35;;;;;;;5.90;4.30;;;21.30;1.00;;;;;;2612686;54;20168;-77
2022/06/28 20:33:22;;;;;;;4.90;4.50;;;21.10;1.80;;;;;;2613446;54;20387;-76
2022/06/28 20:39:11;;;;;;;7.43;4.07;;;21.00;3.10;;;;;;2613707;54;20222;-76
2022/06/28 20:44:58;;;;;;;4.70;3.80;;;21.00;2.40;;;;;;2613638;54;20403;-76
2022/06/28 20:50:45;;;;;;;5.00;4.47;;;20.90;3.70;;;;;;2613660;54;20130;-75
2022/06/28 20:56:33;;;;;;;4.53;4.13;;;20.90;3.00;;;;;;2614467;54;20239;-75
2022/06/28 21:02:21;;;;;;;6.07;3.90;;;20.80;3.40;;;;;;2614700;54;20414;-76
2022/06/28 21:08:09;;;;;;;4.27;3.97;;;20.70;4.10;;;;;;2614883;54;20390;-76
2022/06/28 21:17:22;;;;;;;5.10;4.13;;;20.70;4.20;;;;;;2614581;54;20415;-76
2022/06/28 21:23:10;;;;;;;6.40;4.40;;;20.60;5.80;;;;;;2615115;39;20821;-76
2022/06/28 21:28:58;;;;;;;5.03;4.43;;;20.40;7.40;;;;;;2614676;54;20123;-74
2022/06/28 21:34:46;;;;;;;5.33;4.23;;;20.10;10.80;;;;;;2616050;39;20208;-75
2022/06/28 21:40:35;;;;;;;5.87;5.30;;;19.80;14.40;;;;;;2615681;54;20415;-76
2022/06/28 21:46:22;;;;;;;10.60;7.20;;;19.70;17.60;;;;;;2615019;54;20362;-74
2022/06/28 21:52:10;;;;;;;8.10;6.27;;;19.60;18.50;;;;;;2615447;54;20649;-73
2022/06/28 21:57:58;;;;;;;8.40;5.40;;;19.40;20.20;;;;;;2615447;54;20711;-75
2022/06/28 22:03:46;;;;;;;9.20;6.53;;;19.40;21.50;;;;;;2615683;54;20503;-75
2022/06/28 22:09:34;;;;;;;7.73;6.93;;;19.30;19.50;;;;;;2615653;54;20139;-75
2022/06/28 22:15:35;;;;;;;8.47;7.67;;;19.30;21.90;;;;;;2614024;54;20162;-75
2022/06/28 22:21:22;;;;;;;7.27;6.63;;;19.20;22.10;;;;;;2613384;46;20411;-74
2022/06/28 22:27:10;;;;;;;8.77;7.30;;;19.10;21.90;;;;;;2613839;54;20153;-74
2022/06/28 22:32:57;;;;;;;6.33;5.73;;;19.00;23.60;;;;;;2614049;54;20153;-75
2022/06/28 22:38:44;;;;;;;5.17;4.70;;;19.20;18.80;;;;;;2612844;54;20138;-74
2022/06/28 22:44:32;;;;;;;6.20;5.50;;;19.30;18.80;;;;;;2613963;54;20673;-74
2022/06/28 22:50:19;;;;;;;6.60;5.50;;;19.20;18.00;;;;;;2614300;54;20137;-74
2022/06/28 22:56:06;;;;;;;7.30;5.40;;;19.20;17.80;;;;;;2615680;54;20156;-74
2022/06/28 23:01:54;;;;;;;6.13;5.53;;;19.00;19.60;;;;;;2615691;39;20563;-75
2022/06/28 23:07:41;;;;;;;6.20;5.60;;;18.80;22.10;;;;;;2614260;54;20132;-73
2022/06/28 23:23:44;;;;;;;6.17;4.90;;;18.60;28.00;;;;;;2612791;46;20431;-75
2022/06/28 23:29:32;;;;;;;8.63;7.33;;;18.40;28.00;;;;;;2613485;54;20129;-75
2022/06/28 23:35:20;;;;;;;6.50;5.77;;;18.30;30.40;;;;;;2613815;54;20366;-74
2022/06/28 23:41:07;;;;;;;5.87;4.77;;;18.10;36.50;;;;;;2613831;54;20499;-74
2022/06/28 23:46:54;;;;;;;5.03;4.63;;;18.00;43.00;;;;;;2613956;54;20161;-75
2022/06/28 23:52:42;;;;;;;6.10;3.93;;;17.80;48.70;;;;;;2613621;54;20238;-75
2022/06/28 23:58:30;;;;;;;6.30;4.00;;;17.80;51.10;;;;;;2615076;54;20126;-74
